This is the latest recevied weather packets stored in our database for station/object DL7GAI-7. If no packets are shown the sender has not sent any weather packets the latest 10 day(s).
| Time | Temp. | Humidity | Pressure | Rain* | Wind** | Luminosity | Snow |
|---|---|---|---|---|---|---|---|
| 1777041099 | 20.56° C | 27% | 1018.1 hPa | 0 mm | 2.24 m/s, 225° | - | - |
| 1777040339 | 20.56° C | 27% | 1018.1 hPa | 0 mm | 2.24 m/s, 225° | - | - |
| 1777039549 | 20.56° C | 30% | 1018.3 hPa | 0 mm | 2.24 m/s, 270° | - | - |
| 1777038799 | 20.56° C | 30% | 1018.3 hPa | 0 mm | 2.24 m/s, 270° | - | - |
| 1777038016 | 20.56° C | 30% | 1018.3 hPa | 0 mm | 2.24 m/s, 270° | - | - |
| 1777037263 | 20° C | 29% | 1018.5 hPa | 0 mm | 2.24 m/s, 180° | - | - |
| 1777036377 | 20° C | 29% | 1018.5 hPa | 0 mm | 2.24 m/s, 180° | - | - |
| 1777035549 | 19.44° C | 28% | 1018.9 hPa | 0 mm | 1.34 m/s, 135° | - | - |
| 1777034688 | 19.44° C | 28% | 1018.9 hPa | 0 mm | 1.34 m/s, 135° | - | - |
| 1777033853 | 18.33° C | 41% | 1019.6 hPa | 0 mm | 1.79 m/s, 270° | - | - |
| 1777033078 | 18.33° C | 41% | 1019.6 hPa | 0 mm | 1.79 m/s, 270° | - | - |
| 1777032275 | 18.33° C | 41% | 1019.6 hPa | 0 mm | 1.79 m/s, 270° | - | - |
| 1777031474 | 18.33° C | 41% | 1019.6 hPa | 0 mm | 1.79 m/s, 270° | - | - |
| 1777030639 | 18.33° C | 41% | 1019.6 hPa | 0 mm | 1.79 m/s, 270° | - | - |
| 1777029843 | 17.22° C | 35% | 1020.1 hPa | 0 mm | 3.13 m/s, 90° | - | - |
| 1777029023 | 17.22° C | 35% | 1020.1 hPa | 0 mm | 3.13 m/s, 90° | - | - |
| 1777028148 | 16.67° C | 45% | 1020.5 hPa | 0 mm | 1.79 m/s, 180° | - | - |
| 1777027339 | 16.67° C | 45% | 1020.5 hPa | 0 mm | 1.79 m/s, 180° | - | - |
| 1777026524 | 13.89° C | 51% | 1021.4 hPa | 0 mm | 1.34 m/s, 225° | - | - |
| 1777025774 | 13.89° C | 51% | 1021.4 hPa | 0 mm | 1.34 m/s, 225° | - | - |
| 1777024933 | 13.89° C | 51% | 1021.4 hPa | 0 mm | 1.34 m/s, 225° | - | - |
| 1777024163 | 13.89° C | 51% | 1021.4 hPa | 0 mm | 1.34 m/s, 225° | - | - |
| 1777023322 | 13.33° C | 48% | 1021.6 hPa | 0 mm | 0.89 m/s, 180° | - | - |
| 1777022478 | 13.33° C | 48% | 1021.6 hPa | 0 mm | 0.89 m/s, 180° | - | - |
| 1777021688 | 13.33° C | 48% | 1021.6 hPa | 0 mm | 0.89 m/s, 180° | - | - |
* Rain latest hour (hover to see other rain measurements)
** Current wind speed in m/s (hover to see current wind gust speed)